Terminal Aerodrome Forecast
Issued by NWS Chicago, IL

Home | Current Version | Previous Version | Graphics & Text | Print | Product List | Glossary On
Versions: 1 2 3 4 5 6 7 8 9 10 11 12 13 14 15 16 17 18 19 20 21 22 23 24
000
FTUS43 KLOT 261127
TAFRFD
TAF
KRFD 261127Z 2612/2712 19003KT P6SM SKC
     FM261600 24008KT P6SM FEW250
     FM262000 25009KT P6SM FEW060 BKN250
     FM270500 35013G20KT P6SM SCT020 BKN070
     FM270900 35010KT P6SM FEW025=

USA.gov is the U.S. government's official web portal to all federal, state and local government web resources and services.